< < Back
Terminal Aerodrome Forecast


Current Version              Previous Versions:   1  2  3  4  5  6  7  8  9  

Terminal Aerodrome Forecast

589
FTUS44 KBMX 252331
TAFBHM
TAF
KBHM 252331Z 2600/2624 VRB02KT P6SM FEW060
     FM261600 14005KT P6SM SCT050=

Latest METAR

796
SAUS70 KWBC 260400 RRH
MTRBHM
METAR KBHM 260353Z 00000KT 10SM SCT060 26/23 A3007 RMK AO2 SLP171
T02560233


USA.gov is the U.S. government's official web portal to all federal, state and local government web resources and services.